• Join FlightAware (Why Join?)
  • Login
  • US Flag 
07:25PM EDT


 

Airport Tracker/Info


-or-


 

Live Flight TrackerFlight Track Log ✈ N92PK ✈ 17-Jul-2013 ✈ KPPF - KMWC

Flight Track Log - Related Links

Times and Time Zones

All times are in EDT time to prevent confusion due to time zone crossing. See the N92PK flight status page for this flight to view local times or setup timezone preferences in your user account.

Time Position Orientation Groundspeed Altitude Reporting Facility
EDT Latitude Longitude Course Direction KTS MPH feet Rate Location/Type
03:27PM 37.3528 -95.4531 33° Northeast 151 174 2,600  Level Kansas City Center
03:28PM 37.3842 -95.4269 33° Northeast 136 157 3,600 780 Climbing Kansas City Center
03:29PM 37.4189 -95.4008 31° Northeast 140 161 4,300 660 Climbing Kansas City Center
03:30PM 37.4500 -95.3681 40° Northeast 142 163 5,000 720 Climbing Kansas City Center
03:31PM 37.4792 -95.3344 42° Northeast 141 162 5,800 780 Climbing Kansas City Center
03:32PM 37.5078 -95.2983 45° Northeast 142 163 6,700 420 Climbing Kansas City Center
03:37PM 37.6860 -95.0930 45° Northeast 176 203 8,700 300 Climbing FlightAware
03:38PM 37.7000 -95.0770 42° Northeast 176 203 8,700  Level FlightAware
03:38PM 37.6990 -95.0790 238° Southwest 175 201 8,700  Level FlightAware
03:39PM 37.7110 -95.0650 43° Northeast 175 201 8,700  Level FlightAware
03:39PM 37.7490 -95.0200 43° Northeast 179 206 8,700  Level FlightAware
03:40PM 37.7730 -94.9920 43° Northeast 179 206 8,700  Level FlightAware
03:43PM 37.8820 -94.8650 43° Northeast 176 203 8,700  Level FlightAware
03:44PM 37.9060 -94.8380 42° Northeast 177 204 8,700  Level FlightAware
03:44PM 37.9240 -94.8170 43° Northeast 177 204 8,700  Level FlightAware
03:45PM 37.9370 -94.8030 40° Northeast 177 204 8,700  Level FlightAware
03:45PM 37.9430 -94.7960 43° Northeast 177 204 8,700  Level FlightAware
03:47PM 38.0530 -94.6660 43° Northeast 178 205 8,700  Level FlightAware
03:48PM 38.0660 -94.6510 42° Northeast 178 205 8,700  Level FlightAware
03:48PM 38.0880 -94.6240 44° Northeast 179 206 8,700  Level FlightAware
03:49PM 38.0980 -94.6130 41° Northeast 176 203 8,700  Level FlightAware
03:49PM 38.1170 -94.5910 42° Northeast 176 203 8,700  Level FlightAware
03:50PM 38.1350 -94.5700 43° Northeast 176 203 8,700  Level FlightAware
03:50PM 38.1410 -94.5630 43° Northeast 176 203 8,700 360 Level FlightAware
03:51PM 38.1689 -94.5292 43° Northeast 176 203 9,000 240 Climbing Kansas City Center
03:52PM 38.2036 -94.4869 44° Northeast 177 204 9,100  Climbing Kansas City Center
03:53PM 38.2464 -94.4369 43° Northeast 182 209 9,100  Level Kansas City Center
03:54PM 38.2808 -94.3958 43° Northeast 183 211 9,100  Level Kansas City Center
03:55PM 38.3156 -94.3547 43° Northeast 180 207 9,100  Level Kansas City Center
03:56PM 38.3592 -94.3106 38° Northeast 177 204 9,100  Level Kansas City Center
03:57PM 38.3967 -94.2719 39° Northeast 182 209 9,100  Level Kansas City Center
03:58PM 38.4392 -94.2258 40° Northeast 180 207 9,100 -120 Level Kansas City Center
04:03PM 38.6480 -94.0050 40° Northeast 179 206 8,700 -120 Descending FlightAware
04:04PM 38.6590 -93.9930 40° Northeast 178 205 8,700  Level FlightAware
04:04PM 38.6800 -93.9720 38° Northeast 176 203 8,700  Level FlightAware
04:05PM 38.6970 -93.9530 41° Northeast 174 200 8,700  Level FlightAware
04:05PM 38.7130 -93.9370 38° Northeast 176 203 8,700  Level FlightAware
04:05PM 38.7260 -93.9230 40° Northeast 176 203 8,700  Level FlightAware
04:06PM 38.7420 -93.9060 40° Northeast 178 205 8,700  Level FlightAware
04:06PM 38.7610 -93.8850 41° Northeast 180 207 8,700  Level FlightAware
04:06PM 38.7680 -93.8780 38° Northeast 180 207 8,700  Level FlightAware
04:07PM 38.7860 -93.8580 41° Northeast 181 208 8,700  Level FlightAware
04:07PM 38.8020 -93.8400 41° Northeast 181 208 8,700  Level FlightAware
04:08PM 38.8400 -93.8010 39° Northeast 178 205 8,700  Level FlightAware
04:09PM 38.8570 -93.7820 41° Northeast 176 203 8,700  Level FlightAware
04:09PM 38.8690 -93.7700 38° Northeast 176 203 8,700  Level FlightAware
04:10PM 38.8850 -93.7520 41° Northeast 178 205 8,700  Level FlightAware
04:10PM 38.9020 -93.7300 45° Northeast 178 205 8,700  Level FlightAware
04:10PM 38.9180 -93.7090 46° Northeast 178 205 8,700  Level FlightAware
04:11PM 38.9340 -93.6900 43° Northeast 177 204 8,700  Level FlightAware
04:11PM 38.9490 -93.6720 43° Northeast 178 205 8,700  Level FlightAware
04:12PM 38.9660 -93.6510 44° Northeast 181 208 8,700  Level FlightAware
04:12PM 38.9770 -93.6370 45° Northeast 183 211 8,700  Level FlightAware
04:13PM 38.9940 -93.6160 44° Northeast 181 208 8,700  Level FlightAware
04:13PM 39.0070 -93.6000 44° Northeast 182 209 8,700  Level FlightAware
04:13PM 39.0150 -93.5900 44° Northeast 182 209 8,700 -180 Level FlightAware
04:14PM 39.0330 -93.5680 44° Northeast 183 211 8,600 -120 Descending FlightAware
04:14PM 39.0500 -93.5460 45° Northeast 181 208 8,600  Level FlightAware
04:14PM 39.0630 -93.5300 44° Northeast 181 208 8,600  Level FlightAware
04:15PM 39.0840 -93.5040 44° Northeast 181 208 8,600  Level FlightAware
04:15PM 39.0980 -93.4870 43° Northeast 181 208 8,600  Level FlightAware
04:16PM 39.1150 -93.4660 44° Northeast 174 200 8,600  Level FlightAware
04:16PM 39.1320 -93.4450 44° Northeast 178 205 8,600  Level FlightAware
04:17PM 39.1490 -93.4240 44° Northeast 182 209 8,600  Level FlightAware
04:17PM 39.1570 -93.4140 44° Northeast 181 208 8,600  Level FlightAware
04:18PM 39.1770 -93.3890 44° Northeast 183 211 8,600  Level FlightAware
04:18PM 39.2010 -93.3590 44° Northeast 182 209 8,600  Level FlightAware
04:19PM 39.2130 -93.3440 44° Northeast 181 208 8,600  Level FlightAware
04:19PM 39.2300 -93.3220 45° Northeast 182 209 8,600  Level FlightAware
04:20PM 39.2550 -93.2920 43° Northeast 183 211 8,600  Level FlightAware
04:21PM 39.2990 -93.2370 44° Northeast 183 211 8,600  Level FlightAware
04:21PM 39.3050 -93.2290 46° Northeast 183 211 8,600 180 Level FlightAware
04:23PM 39.3594 -93.1614 46° Northeast 185 213 8,900 120 Climbing Kansas City Center
04:24PM 39.3958 -93.1175 43° Northeast 182 209 8,900  Level Kansas City Center
04:25PM 39.4314 -93.0717 45° Northeast 182 209 8,900  Level Kansas City Center
04:26PM 39.4731 -93.0172 45° Northeast 181 208 8,900  Level Kansas City Center
04:27PM 39.5089 -92.9714 45° Northeast 181 208 8,900  Level Kansas City Center
04:28PM 39.5444 -92.9272 44° Northeast 180 207 8,900  Level Kansas City Center
04:29PM 39.5806 -92.8822 44° Northeast 180 207 8,900  Level Kansas City Center
04:30PM 39.6169 -92.8358 44° Northeast 183 211 8,900  Level Kansas City Center
04:31PM 39.6600 -92.7803 45° Northeast 185 213 8,900  Level Kansas City Center
04:32PM 39.6964 -92.7344 44° Northeast 184 212 8,900  Level Kansas City Center
04:33PM 39.7325 -92.6889 44° Northeast 184 212 8,900  Level Kansas City Center
04:34PM 39.7678 -92.6439 44° Northeast 180 207 8,900  Level Kansas City Center
04:35PM 39.8067 -92.5964 43° Northeast 179 206 8,900  Level Kansas City Center
04:36PM 39.8461 -92.5444 45° Northeast 181 208 8,900  Level Kansas City Center
04:37PM 39.8819 -92.4994 44° Northeast 181 208 8,900  Level Kansas City Center
04:38PM 39.9169 -92.4536 45° Northeast 181 208 8,900  Level Kansas City Center
04:39PM 39.9528 -92.4075 45° Northeast 182 209 8,900  Level Kansas City Center
04:40PM 39.9956 -92.3533 44° Northeast 181 208 8,900  Level Kansas City Center
04:41PM 40.0311 -92.3069 45° Northeast 183 211 8,900  Level Kansas City Center
04:42PM 40.0664 -92.2628 44° Northeast 180 207 9,000  Climbing Kansas City Center
04:43PM 40.1006 -92.2172 46° Northeast 178 205 9,000  Level Kansas City Center
04:44PM 40.1431 -92.1611 45° Northeast 182 209 9,000  Level Kansas City Center
04:46PM 40.1786 -92.1156 44° Northeast 182 209 9,000  Level Kansas City Center
04:47PM 40.2139 -92.0697 45° Northeast 180 207 9,000  Level Kansas City Center
04:48PM 40.2492 -92.0228 45° Northeast 182 209 9,000  Level Kansas City Center
04:49PM 40.2847 -91.9778 44° Northeast 181 208 9,000  Level Kansas City Center
04:50PM 40.3269 -91.9222 45° Northeast 181 208 9,000  Level Kansas City Center
04:51PM 40.3622 -91.8753 45° Northeast 182 209 9,000  Level Kansas City Center
04:52PM 40.3975 -91.8283 45° Northeast 182 209 9,000  Level Kansas City Center
04:53PM 40.4344 -91.7811 44° Northeast 185 213 9,000  Level Kansas City Center
04:54PM 40.4706 -91.7339 45° Northeast 185 213 9,000  Level Kansas City Center
04:55PM 40.5122 -91.6764 46° Northeast 183 211 9,000  Level Kansas City Center
04:56PM 40.5492 -91.6292 44° Northeast 185 213 9,000  Level Kansas City Center
04:57PM 40.5844 -91.5806 46° Northeast 186 214 9,000  Level Kansas City Center
04:58PM 40.6214 -91.5328 44° Northeast 187 215 9,000  Level Kansas City Center
04:59PM 40.6644 -91.4761 45° Northeast 185 213 9,000  Level Kansas City Center
05:00PM 40.6994 -91.4292 45° Northeast 183 211 9,000  Level Kansas City Center
05:01PM 40.7344 -91.3814 46° Northeast 183 211 9,000  Level Kansas City Center
05:02PM 40.7722 -91.3336 44° Northeast 186 214 9,000 -60 Level Kansas City Center
05:08PM 40.9840 -91.0510 44° Northeast 190 219 8,700 -60 Descending FlightAware
05:08PM 41.0010 -91.0270 47° Northeast 190 219 8,700  Level FlightAware
05:09PM 41.0160 -91.0080 44° Northeast 190 219 8,700  Level FlightAware
05:09PM 41.0230 -90.9980 47° Northeast 190 219 8,700  Level FlightAware
05:09PM 41.0420 -90.9730 45° Northeast 190 219 8,700  Level FlightAware
05:10PM 41.0540 -90.9550 49° Northeast 187 215 8,700  Level FlightAware
05:10PM 41.0720 -90.9310 45° Northeast 187 215 8,700  Level FlightAware
05:10PM 41.0810 -90.9190 45° Northeast 186 214 8,700  Level FlightAware
05:11PM 41.1100 -90.8810 45° Northeast 190 219 8,700  Level FlightAware
05:12PM 41.1250 -90.8600 47° Northeast 190 219 8,700  Level FlightAware
05:12PM 41.1430 -90.8360 45° Northeast 189 217 8,700  Level FlightAware
05:13PM 41.1610 -90.8110 46° Northeast 187 215 8,700  Level FlightAware
05:13PM 41.1910 -90.7710 45° Northeast 187 215 8,700  Level FlightAware
05:14PM 41.2040 -90.7540 45° Northeast 187 215 8,700  Level FlightAware
05:14PM 41.2160 -90.7370 47° Northeast 187 215 8,700  Level FlightAware
05:15PM 41.2460 -90.6950 46° Northeast 188 216 8,700  Level FlightAware
05:15PM 41.2600 -90.6770 44° Northeast 188 216 8,700  Level FlightAware
05:16PM 41.2810 -90.6470 47° Northeast 189 217 8,700  Level FlightAware
05:16PM 41.2970 -90.6250 46° Northeast 188 216 8,700  Level FlightAware
05:17PM 41.3120 -90.6060 44° Northeast 188 216 8,700  Level FlightAware
05:17PM 41.3250 -90.5880 46° Northeast 188 216 8,700  Level FlightAware
05:18PM 41.3370 -90.5720 45° Northeast 188 216 8,700  Level FlightAware
05:18PM 41.3510 -90.5540 44° Northeast 188 216 8,700  Level FlightAware
05:18PM 41.3740 -90.5210 47° Northeast 188 216 8,700  Level FlightAware
05:19PM 41.3920 -90.4950 47° Northeast 188 216 8,700  Level FlightAware
05:20PM 41.4150 -90.4630 46° Northeast 188 216 8,700  Level FlightAware
05:20PM 41.4360 -90.4350 45° Northeast 186 214 8,700  Level FlightAware
05:20PM 41.4410 -90.4280 46° Northeast 186 214 8,700  Level FlightAware
05:21PM 41.4580 -90.4050 45° Northeast 186 214 8,700  Level FlightAware
05:21PM 41.4700 -90.3890 45° Northeast 186 214 8,700  Level FlightAware
05:21PM 41.4850 -90.3670 48° Northeast 184 212 8,700  Level FlightAware
05:22PM 41.5020 -90.3440 45° Northeast 184 212 8,700  Level FlightAware
05:22PM 41.5170 -90.3240 45° Northeast 184 212 8,700  Level FlightAware
05:23PM 41.5320 -90.3030 46° Northeast 186 214 8,700  Level FlightAware
05:23PM 41.5500 -90.2780 46° Northeast 186 214 8,700  Level FlightAware
05:24PM 41.5680 -90.2530 46° Northeast 185 213 8,700  Level FlightAware
05:24PM 41.5850 -90.2300 45° Northeast 183 211 8,700  Level FlightAware
05:25PM 41.5990 -90.2100 47° Northeast 184 212 8,700  Level FlightAware
05:25PM 41.6170 -90.1850 46° Northeast 185 213 8,700  Level FlightAware
05:26PM 41.6350 -90.1610 45° Northeast 183 211 8,700  Level FlightAware
05:26PM 41.6500 -90.1390 48° Northeast 183 211 8,700  Level FlightAware
05:26PM 41.6590 -90.1270 45° Northeast 182 209 8,700  Level FlightAware
05:27PM 41.6910 -90.0820 46° Northeast 183 211 8,700  Level FlightAware
05:28PM 41.7070 -90.0600 46° Northeast 182 209 8,700  Level FlightAware
05:28PM 41.7270 -90.0310 47° Northeast 181 208 8,700  Level FlightAware
05:29PM 41.7410 -90.0120 45° Northeast 182 209 8,700  Level FlightAware
05:29PM 41.7590 -89.9870 46° Northeast 183 211 8,700  Level FlightAware
05:30PM 41.7750 -89.9640 47° Northeast 181 208 8,700  Level FlightAware
05:30PM 41.7990 -89.9310 46° Northeast 183 211 8,700  Level FlightAware
05:31PM 41.8150 -89.9080 47° Northeast 186 214 8,700  Level FlightAware
05:31PM 41.8320 -89.8850 45° Northeast 182 209 8,700  Level FlightAware
05:32PM 41.8420 -89.8720 44° Northeast 182 209 8,700  Level FlightAware
05:32PM 41.8540 -89.8530 50° Northeast 181 208 8,700  Level FlightAware
05:32PM 41.8720 -89.8280 46° Northeast 183 211 8,700  Level FlightAware
05:33PM 41.8820 -89.8150 44° Northeast 183 211 8,700  Level FlightAware
05:33PM 41.8960 -89.7960 45° Northeast 183 211 8,700  Level FlightAware
05:33PM 41.9050 -89.7830 47° Northeast 183 211 8,700 -360 Level FlightAware
05:34PM 41.9210 -89.7640 41° Northeast 189 217 8,500 -600 Descending FlightAware
05:34PM 41.9380 -89.7440 41° Northeast 190 219 8,200 -600 Descending FlightAware
05:35PM 41.9560 -89.7220 42° Northeast 189 217 8,000 -600 Descending FlightAware
05:35PM 41.9740 -89.7010 41° Northeast 190 219 7,700 -660 Descending FlightAware
05:36PM 41.9940 -89.6760 43° Northeast 195 224 7,400 -600 Descending FlightAware
05:36PM 42.0070 -89.6620 39° Northeast 194 223 7,200 -720 Descending FlightAware
05:36PM 42.0240 -89.6400 44° Northeast 194 223 6,900 -600 Descending FlightAware
05:37PM 42.0350 -89.6270 41° Northeast 194 223 6,800 -420 Descending FlightAware
05:37PM 42.0440 -89.6160 42° Northeast 195 224 6,700 -600 Descending FlightAware
05:37PM 42.0630 -89.5940 41° Northeast 194 223 6,400 -660 Descending FlightAware
05:38PM 42.0800 -89.5730 43° Northeast 194 223 6,100 -660 Descending FlightAware
05:38PM 42.0990 -89.5500 42° Northeast 194 223 5,800 -600 Descending FlightAware
05:39PM 42.1210 -89.5230 42° Northeast 191 220 5,500 -600 Descending FlightAware
05:39PM 42.1400 -89.5000 42° Northeast 193 222 5,200 -660 Descending FlightAware
05:40PM 42.1570 -89.4790 42° Northeast 192 221 4,900 -600 Descending FlightAware
05:40PM 42.1740 -89.4580 42° Northeast 190 219 4,700 -360 Descending FlightAware
05:40PM 42.1820 -89.4490 40° Northeast 184 212 4,700  Level FlightAware
05:41PM 42.2000 -89.4270 42° Northeast 181 208 4,700  Level FlightAware
05:41PM 42.2150 -89.4090 42° Northeast 179 206 4,700  Level FlightAware
05:42PM 42.2310 -89.3880 44° Northeast 176 203 4,700  Level FlightAware
05:42PM 42.2410 -89.3760 42° Northeast 174 200 4,700  Level FlightAware
05:42PM 42.2570 -89.3580 40° Northeast 172 198 4,700  Level FlightAware
05:43PM 42.2730 -89.3380 43° Northeast 173 199 4,700  Level FlightAware
05:43PM 42.2870 -89.3210 42° Northeast 172 198 4,700  Level FlightAware
05:44PM 42.3020 -89.3020 43° Northeast 173 199 4,700  Level FlightAware
05:44PM 42.3180 -89.2820 43° Northeast 174 200 4,700  Level FlightAware
05:45PM 42.3350 -89.2610 42° Northeast 173 199 4,700  Level FlightAware
05:45PM 42.3520 -89.2400 42° Northeast 173 199 4,700  Level FlightAware
05:46PM 42.3690 -89.2190 42° Northeast 175 201 4,700  Level FlightAware
05:46PM 42.3850 -89.2000 41° Northeast 174 200 4,700  Level FlightAware
05:46PM 42.4030 -89.1780 42° Northeast 174 200 4,700  Level FlightAware
05:47PM 42.4200 -89.1570 42° Northeast 175 201 4,700  Level FlightAware
05:47PM 42.4360 -89.1370 43° Northeast 175 201 4,700  Level FlightAware
05:48PM 42.4540 -89.1150 42° Northeast 174 200 4,700  Level FlightAware
05:48PM 42.4710 -89.0940 42° Northeast 172 198 4,700  Level FlightAware
05:49PM 42.4850 -89.0770 42° Northeast 172 198 4,700  Level FlightAware
05:49PM 42.5030 -89.0550 42° Northeast 172 198 4,700  Level FlightAware
05:50PM 42.5200 -89.0340 42° Northeast 174 200 4,700  Level FlightAware
05:50PM 42.5360 -89.0130 44° Northeast 173 199 4,700  Level FlightAware
05:51PM 42.5530 -88.9930 41° Northeast 169 194 4,700  Level FlightAware
05:51PM 42.5690 -88.9720 44° Northeast 168 193 4,700  Level FlightAware
05:52PM 42.5840 -88.9540 41° Northeast 169 194 4,700  Level FlightAware
05:52PM 42.5960 -88.9390 43° Northeast 169 194 4,700  Level FlightAware
05:52PM 42.6140 -88.9170 42° Northeast 169 194 4,700  Level FlightAware
05:53PM 42.6300 -88.8970 43° Northeast 169 194 4,700  Level FlightAware
05:53PM 42.6460 -88.8770 43° Northeast 172 198 4,700  Level FlightAware
05:54PM 42.6600 -88.8590 43° Northeast 171 197 4,700  Level FlightAware
05:54PM 42.6760 -88.8390 43° Northeast 171 197 4,700  Level FlightAware
05:54PM 42.6850 -88.8280 42° Northeast 172 198 4,700  Level FlightAware
05:55PM 42.7000 -88.8090 43° Northeast 171 197 4,700 60 Level FlightAware
05:55PM 42.7180 -88.7870 42° Northeast 169 194 4,800 60 Climbing FlightAware
05:56PM 42.7340 -88.7670 43° Northeast 171 197 4,800  Level FlightAware
05:56PM 42.7510 -88.7460 42° Northeast 171 197 4,800  Level FlightAware
05:57PM 42.7650 -88.7280 43° Northeast 171 197 4,800  Level FlightAware
05:57PM 42.7760 -88.7150 41° Northeast 171 197 4,800  Level FlightAware
05:58PM 42.7960 -88.6900 43° Northeast 172 198 4,800  Level FlightAware
05:58PM 42.8130 -88.6680 44° Northeast 172 198 4,800  Level FlightAware
05:58PM 42.8220 -88.6560 44° Northeast 172 198 4,800  Level FlightAware
05:59PM 42.8370 -88.6380 41° Northeast 174 200 4,800  Level FlightAware
05:59PM 42.8560 -88.6140 43° Northeast 174 200 4,800  Level FlightAware
06:00PM 42.8720 -88.5940 42° Northeast 171 197 4,800  Level FlightAware
06:00PM 42.8850 -88.5780 42° Northeast 170 196 4,800  Level FlightAware
06:01PM 42.9050 -88.5530 42° Northeast 172 198 4,800  Level FlightAware
06:01PM 42.9200 -88.5340 43° Northeast 174 200 4,800  Level FlightAware
06:02PM 42.9370 -88.5120 43° Northeast 173 199 4,800  Level FlightAware
06:02PM 42.9540 -88.4910 42° Northeast 173 199 4,800  Level FlightAware
06:03PM 42.9700 -88.4700 44° Northeast 174 200 4,800  Level FlightAware
06:03PM 42.9820 -88.4550 42° Northeast 175 201 4,800  Level FlightAware
06:03PM 43.0010 -88.4320 42° Northeast 171 197 4,800  Level FlightAware
06:04PM 43.0180 -88.4090 45° Northeast 166 191 4,800  Level FlightAware
06:04PM 43.0280 -88.3980 39° Northeast 162 186 4,800  Level FlightAware
06:05PM 43.0430 -88.3790 43° Northeast 158 182 4,800  Level FlightAware
06:05PM 43.0540 -88.3640 45° Northeast 158 182 4,800  Level FlightAware
06:06PM 43.0720 -88.3380 47° Northeast 160 184 4,800  Level FlightAware
06:06PM 43.0820 -88.3230 48° Northeast 158 182 4,800  Level FlightAware
06:06PM 43.0950 -88.3020 50° Northeast 155 178 4,800  Level FlightAware
06:07PM 43.1070 -88.2830 49° Northeast 153 176 4,800  Level FlightAware
06:07PM 43.1210 -88.2620 48° Northeast 153 176 4,800  Level FlightAware
06:08PM 43.1320 -88.2440 50° Northeast 155 178 4,800  Level FlightAware
06:08PM 43.1430 -88.2260 50° Northeast 154 177 4,800  Level FlightAware
06:08PM 43.1490 -88.2170 48° Northeast 155 178 4,800 -480 Level FlightAware
06:09PM 43.1620 -88.1960 50° Northeast 161 185 4,500 -720 Descending FlightAware
06:09PM 43.1700 -88.1830 50° Northeast 165 190 4,300 -420 Descending FlightAware
06:10PM 43.1900 -88.1530 48° Northeast 165 190 4,100 -180 Descending FlightAware
06:11PM 43.2181 -88.1067 48° Northeast 162 186 4,000 -300 Descending Chicago Center
06:12PM 43.2378 -88.0603 60° Northeast 150 173 3,600 -540 Descending Chicago Center
06:13PM 43.2547 -88.0006 69° East 159 183 3,000 -300 Descending Chicago Center
06:14PM 43.2536 -87.9386 91° East 141 162 3,000 -60 Level Chicago Center
06:15PM 43.2244 -87.9228 158° South 130 150 2,900  Descending Chicago Center
06:16PM 43.1989 -87.9469 215° Southwest 116 133 3,000  Climbing Chicago Center
06:17PM 43.1725 -87.9717 214° Southwest 114 131 3,000 -420 Level Chicago Center
06:18PM 43.1469 -87.9975 216° Southwest 114 131 2,200 -900 Descending Chicago Center
06:19PM 43.1183 -88.0264 216° Southwest 115 132 1,200 -960 Descending Chicago Center